sensor_id;sensor_type;location;lat;lon;timestamp;P1;durP1;ratioP1;P2;durP2;ratioP2
74483;SDS011;62942;52.462;10.846;2022-09-03T00:00:50;1.1;;;2.6;;
74483;SDS011;62942;52.462;10.846;2022-09-03T00:01:50;1.1;;;2.3;;
74483;SDS011;62942;52.462;10.846;2022-09-03T00:02:51;1.2;;;2.7;;
74483;SDS011;62942;52.462;10.846;2022-09-03T00:03:50;1.2;;;4.4;;
74483;SDS011;62942;52.462;10.846;2022-09-03T00:05:01;1.2;;;4.1;;
74483;SDS011;62942;52.462;10.846;2022-09-03T00:06:10;1.2;;;2.7;;
74483;SDS011;62942;52.462;10.846;2022-09-03T00:07:11;1.3;;;3.4;;
74483;SDS011;62942;52.462;10.846;2022-09-03T00:08:20;1.1;;;2.6;;
74483;SDS011;62942;52.462;10.846;2022-09-03T00:09:21;1.2;;;2.2;;
74483;SDS011;62942;52.462;10.846;2022-09-03T00:10:20;1.2;;;3.1;;
74483;SDS011;62942;52.462;10.846;2022-09-03T00:11:20;1.1;;;2.3;;
74483;SDS011;62942;52.462;10.846;2022-09-03T00:12:31;1.1;;;2.5;;
74483;SDS011;62942;52.462;10.846;2022-09-03T00:13:41;1.2;;;3.8;;
74483;SDS011;62942;52.462;10.846;2022-09-03T00:14:50;1.1;;;2.6;;
74483;SDS011;62942;52.462;10.846;2022-09-03T00:15:59;1.2;;;3.2;;
74483;SDS011;62942;52.462;10.846;2022-09-03T00:16:59;1.1;;;2.3;;
74483;SDS011;62942;52.462;10.846;2022-09-03T00:18:10;1.1;;;2.3;;
74483;SDS011;62942;52.462;10.846;2022-09-03T00:19:09;1.1;;;2.4;;
74483;SDS011;62942;52.462;10.846;2022-09-03T00:20:21;1.1;;;2.2;;
74483;SDS011;62942;52.462;10.846;2022-09-03T00:21:32;1;;;1.8;;
74483;SDS011;62942;52.462;10.846;2022-09-03T00:22:40;1.1;;;2.6;;
74483;SDS011;62942;52.462;10.846;2022-09-03T00:23:40;1.1;;;3;;
74483;SDS011;62942;52.462;10.846;2022-09-03T00:24:49;1.1;;;2.4;;
74483;SDS011;62942;52.462;10.846;2022-09-03T00:25:50;1.1;;;2;;
74483;SDS011;62942;52.462;10.846;2022-09-03T00:27:00;1.1;;;2.5;;
74483;SDS011;62942;52.462;10.846;2022-09-03T00:27:59;1.2;;;2.2;;
74483;SDS011;62942;52.462;10.846;2022-09-03T00:29:00;1.1;;;3.2;;
74483;SDS011;62942;52.462;10.846;2022-09-03T00:30:10;1.2;;;3.5;;
74483;SDS011;62942;52.462;10.846;2022-09-03T00:31:20;1.2;;;3.4;;
74483;SDS011;62942;52.462;10.846;2022-09-03T00:32:20;1.1;;;2.2;;
74483;SDS011;62942;52.462;10.846;2022-09-03T00:33:29;1.1;;;1.8;;
74483;SDS011;62942;52.462;10.846;2022-09-03T00:34:40;1.3;;;4.4;;
74483;SDS011;62942;52.462;10.846;2022-09-03T00:35:40;1.3;;;3.1;;
74483;SDS011;62942;52.462;10.846;2022-09-03T00:36:49;1.1;;;2.3;;
74483;SDS011;62942;52.462;10.846;2022-09-03T00:37:59;1;;;1.9;;
74483;SDS011;62942;52.462;10.846;2022-09-03T00:39:10;1;;;2.1;;
74483;SDS011;62942;52.462;10.846;2022-09-03T00:40:25;1.1;;;2.2;;
74483;SDS011;62942;52.462;10.846;2022-09-03T00:41:32;1.2;;;2.3;;
74483;SDS011;62942;52.462;10.846;2022-09-03T00:42:32;1.3;;;2.6;;
74483;SDS011;62942;52.462;10.846;2022-09-03T00:43:44;1.2;;;2.5;;
74483;SDS011;62942;52.462;10.846;2022-09-03T00:44:53;1.1;;;3.2;;
74483;SDS011;62942;52.462;10.846;2022-09-03T00:45:51;1.2;;;3.9;;
74483;SDS011;62942;52.462;10.846;2022-09-03T00:47:01;1.1;;;1.9;;
74483;SDS011;62942;52.462;10.846;2022-09-03T00:48:02;1.1;;;3.6;;
74483;SDS011;62942;52.462;10.846;2022-09-03T00:49:15;1.2;;;3.2;;
74483;SDS011;62942;52.462;10.846;2022-09-03T00:50:20;1.1;;;1.9;;
74483;SDS011;62942;52.462;10.846;2022-09-03T00:51:31;1.2;;;3;;
74483;SDS011;62942;52.462;10.846;2022-09-03T00:52:34;1.1;;;2.3;;
74483;SDS011;62942;52.462;10.846;2022-09-03T00:53:40;1;;;1.8;;
74483;SDS011;62942;52.462;10.846;2022-09-03T00:54:41;1.1;;;2.4;;
74483;SDS011;62942;52.462;10.846;2022-09-03T00:55:51;1.2;;;2.2;;
74483;SDS011;62942;52.462;10.846;2022-09-03T00:56:50;1.1;;;2.1;;
74483;SDS011;62942;52.462;10.846;2022-09-03T00:58:04;1.1;;;2.7;;
74483;SDS011;62942;52.462;10.846;2022-09-03T00:59:02;1.1;;;3.8;;
74483;SDS011;62942;52.462;10.846;2022-09-03T01:00:10;1.1;;;2.3;;
74483;SDS011;62942;52.462;10.846;2022-09-03T01:01:20;1.1;;;2.2;;
74483;SDS011;62942;52.462;10.846;2022-09-03T01:02:32;1.1;;;2.2;;
74483;SDS011;62942;52.462;10.846;2022-09-03T01:03:40;1.1;;;4.3;;
74483;SDS011;62942;52.462;10.846;2022-09-03T01:04:42;1.3;;;2.9;;
74483;SDS011;62942;52.462;10.846;2022-09-03T01:05:55;1.2;;;3.3;;
74483;SDS011;62942;52.462;10.846;2022-09-03T01:07:01;1.1;;;2.5;;
74483;SDS011;62942;52.462;10.846;2022-09-03T01:08:13;1.1;;;2.2;;
74483;SDS011;62942;52.462;10.846;2022-09-03T01:09:23;1.1;;;2.5;;
74483;SDS011;62942;52.462;10.846;2022-09-03T01:10:30;1.1;;;2.2;;
74483;SDS011;62942;52.462;10.846;2022-09-03T01:11:42;1.1;;;2.1;;
74483;SDS011;62942;52.462;10.846;2022-09-03T01:12:50;1.1;;;3.4;;
74483;SDS011;62942;52.462;10.846;2022-09-03T01:14:02;1.2;;;3.5;;
74483;SDS011;62942;52.462;10.846;2022-09-03T01:15:02;1.1;;;2.6;;
74483;SDS011;62942;52.462;10.846;2022-09-03T01:16:02;1.2;;;2.4;;
74483;SDS011;62942;52.462;10.846;2022-09-03T01:17:11;1.1;;;2.4;;
74483;SDS011;62942;52.462;10.846;2022-09-03T01:18:20;1.1;;;3.1;;
74483;SDS011;62942;52.462;10.846;2022-09-03T01:19:29;1.1;;;4.2;;
74483;SDS011;62942;52.462;10.846;2022-09-03T01:20:33;1.1;;;3.5;;
74483;SDS011;62942;52.462;10.846;2022-09-03T01:21:34;1.1;;;3.7;;
74483;SDS011;62942;52.462;10.846;2022-09-03T01:22:35;1.1;;;2.7;;
74483;SDS011;62942;52.462;10.846;2022-09-03T01:23:44;1;;;1.7;;
74483;SDS011;62942;52.462;10.846;2022-09-03T01:24:56;1.1;;;2.3;;
74483;SDS011;62942;52.462;10.846;2022-09-03T01:25:51;1.1;;;3.1;;
74483;SDS011;62942;52.462;10.846;2022-09-03T01:27:03;1.2;;;2.1;;
74483;SDS011;62942;52.462;10.846;2022-09-03T01:28:10;1.1;;;2.6;;
74483;SDS011;62942;52.462;10.846;2022-09-03T01:29:19;1.1;;;2.5;;
74483;SDS011;62942;52.462;10.846;2022-09-03T01:30:29;1.3;;;2.6;;
74483;SDS011;62942;52.462;10.846;2022-09-03T01:31:42;1.2;;;2.7;;
74483;SDS011;62942;52.462;10.846;2022-09-03T01:32:51;1.2;;;2.6;;
74483;SDS011;62942;52.462;10.846;2022-09-03T01:34:01;1.1;;;2.4;;
74483;SDS011;62942;52.462;10.846;2022-09-03T01:35:10;1.2;;;2.2;;
74483;SDS011;62942;52.462;10.846;2022-09-03T01:36:21;1.1;;;2.3;;
74483;SDS011;62942;52.462;10.846;2022-09-03T01:37:32;1.2;;;2.6;;
74483;SDS011;62942;52.462;10.846;2022-09-03T01:38:40;1.1;;;2.9;;
74483;SDS011;62942;52.462;10.846;2022-09-03T01:39:53;1.3;;;3.2;;
74483;SDS011;62942;52.462;10.846;2022-09-03T01:41:02;1.3;;;2.4;;
74483;SDS011;62942;52.462;10.846;2022-09-03T01:42:11;1.2;;;2.6;;
74483;SDS011;62942;52.462;10.846;2022-09-03T01:43:14;1.2;;;2.5;;
74483;SDS011;62942;52.462;10.846;2022-09-03T01:44:20;1.1;;;2.6;;
74483;SDS011;62942;52.462;10.846;2022-09-03T01:45:32;1.2;;;2.7;;
74483;SDS011;62942;52.462;10.846;2022-09-03T01:46:39;1;;;2.2;;
74483;SDS011;62942;52.462;10.846;2022-09-03T01:47:53;1.2;;;2.9;;
74483;SDS011;62942;52.462;10.846;2022-09-03T01:49:00;1.1;;;3;;
74483;SDS011;62942;52.462;10.846;2022-09-03T01:50:01;1.2;;;2.4;;
74483;SDS011;62942;52.462;10.846;2022-09-03T01:51:10;1.1;;;2.3;;
74483;SDS011;62942;52.462;10.846;2022-09-03T01:52:20;1.2;;;2.5;;
74483;SDS011;62942;52.462;10.846;2022-09-03T01:53:33;1.1;;;2.6;;
74483;SDS011;62942;52.462;10.846;2022-09-03T01:54:34;1.1;;;3.1;;
74483;SDS011;62942;52.462;10.846;2022-09-03T01:55:42;1.2;;;2.4;;
74483;SDS011;62942;52.462;10.846;2022-09-03T01:56:44;1.1;;;3.5;;
74483;SDS011;62942;52.462;10.846;2022-09-03T01:57:50;1.2;;;2.7;;
74483;SDS011;62942;52.462;10.846;2022-09-03T01:59:01;1.1;;;2.3;;
74483;SDS011;62942;52.462;10.846;2022-09-03T02:00:00;1.3;;;2.8;;
74483;SDS011;62942;52.462;10.846;2022-09-03T02:01:10;1.2;;;2.3;;
74483;SDS011;62942;52.462;10.846;2022-09-03T02:02:20;1.2;;;4.2;;
74483;SDS011;62942;52.462;10.846;2022-09-03T02:03:19;1.1;;;2.4;;
74483;SDS011;62942;52.462;10.846;2022-09-03T02:04:29;1.2;;;3.1;;
74483;SDS011;62942;52.462;10.846;2022-09-03T02:05:39;1.2;;;2.7;;
74483;SDS011;62942;52.462;10.846;2022-09-03T02:06:39;1.2;;;3;;
74483;SDS011;62942;52.462;10.846;2022-09-03T02:07:55;1.1;;;2.1;;
74483;SDS011;62942;52.462;10.846;2022-09-03T02:08:49;1.1;;;2;;
74483;SDS011;62942;52.462;10.846;2022-09-03T02:09:59;1.3;;;3.6;;
74483;SDS011;62942;52.462;10.846;2022-09-03T02:10:59;1.3;;;3.8;;
74483;SDS011;62942;52.462;10.846;2022-09-03T02:12:10;1.2;;;3;;
74483;SDS011;62942;52.462;10.846;2022-09-03T02:13:09;1.2;;;3.4;;
74483;SDS011;62942;52.462;10.846;2022-09-03T02:14:19;1.2;;;2.9;;
74483;SDS011;62942;52.462;10.846;2022-09-03T02:15:20;1.2;;;3;;
74483;SDS011;62942;52.462;10.846;2022-09-03T02:16:20;1.3;;;2.5;;
74483;SDS011;62942;52.462;10.846;2022-09-03T02:17:29;1.2;;;2.8;;
74483;SDS011;62942;52.462;10.846;2022-09-03T02:18:40;1.2;;;2.4;;
74483;SDS011;62942;52.462;10.846;2022-09-03T02:19:49;1.3;;;2.7;;
74483;SDS011;62942;52.462;10.846;2022-09-03T02:20:49;1.2;;;2.3;;
74483;SDS011;62942;52.462;10.846;2022-09-03T02:21:59;1;;;3.7;;
74483;SDS011;62942;52.462;10.846;2022-09-03T02:22:59;1.2;;;2.4;;
74483;SDS011;62942;52.462;10.846;2022-09-03T02:24:09;1;;;1.6;;
74483;SDS011;62942;52.462;10.846;2022-09-03T02:25:09;1.2;;;2.3;;
74483;SDS011;62942;52.462;10.846;2022-09-03T02:26:20;1.2;;;4.1;;
74483;SDS011;62942;52.462;10.846;2022-09-03T02:27:29;1.3;;;3.4;;
74483;SDS011;62942;52.462;10.846;2022-09-03T02:28:39;1.2;;;2.4;;
74483;SDS011;62942;52.462;10.846;2022-09-03T02:29:39;1.2;;;2.1;;
74483;SDS011;62942;52.462;10.846;2022-09-03T02:30:49;1.2;;;2.5;;
74483;SDS011;62942;52.462;10.846;2022-09-03T02:31:49;1.2;;;1.9;;
74483;SDS011;62942;52.462;10.846;2022-09-03T02:32:49;1.1;;;2.4;;
74483;SDS011;62942;52.462;10.846;2022-09-03T02:33:59;1.3;;;4.6;;
74483;SDS011;62942;52.462;10.846;2022-09-03T02:35:09;1.2;;;1.9;;
74483;SDS011;62942;52.462;10.846;2022-09-03T02:36:19;1.3;;;2.6;;
74483;SDS011;62942;52.462;10.846;2022-09-03T02:37:19;1.2;;;3.1;;
74483;SDS011;62942;52.462;10.846;2022-09-03T02:38:29;1.3;;;2.6;;
74483;SDS011;62942;52.462;10.846;2022-09-03T02:39:29;1.2;;;2.7;;
74483;SDS011;62942;52.462;10.846;2022-09-03T02:40:39;1.2;;;3.5;;
74483;SDS011;62942;52.462;10.846;2022-09-03T02:41:39;1.2;;;3.4;;
74483;SDS011;62942;52.462;10.846;2022-09-03T02:42:39;1.2;;;3.6;;
74483;SDS011;62942;52.462;10.846;2022-09-03T02:43:49;1.3;;;3.6;;
74483;SDS011;62942;52.462;10.846;2022-09-03T02:44:59;1.3;;;2.8;;
74483;SDS011;62942;52.462;10.846;2022-09-03T02:46:00;1.2;;;2.6;;
74483;SDS011;62942;52.462;10.846;2022-09-03T02:46:59;1.3;;;2.8;;
74483;SDS011;62942;52.462;10.846;2022-09-03T02:48:09;1.2;;;2.8;;
74483;SDS011;62942;52.462;10.846;2022-09-03T02:49:19;1.4;;;3.3;;
74483;SDS011;62942;52.462;10.846;2022-09-03T02:50:19;1.3;;;2.8;;
74483;SDS011;62942;52.462;10.846;2022-09-03T02:51:31;1.3;;;2.9;;
74483;SDS011;62942;52.462;10.846;2022-09-03T02:52:39;1.2;;;3.6;;
74483;SDS011;62942;52.462;10.846;2022-09-03T02:53:49;1.3;;;3.2;;
74483;SDS011;62942;52.462;10.846;2022-09-03T02:54:49;1.3;;;2.5;;
74483;SDS011;62942;52.462;10.846;2022-09-03T02:55:59;1.3;;;3.5;;
74483;SDS011;62942;52.462;10.846;2022-09-03T02:56:59;1.3;;;2.9;;
74483;SDS011;62942;52.462;10.846;2022-09-03T02:58:09;1.2;;;3.2;;
74483;SDS011;62942;52.462;10.846;2022-09-03T02:59:19;1.3;;;2.3;;
74483;SDS011;62942;52.462;10.846;2022-09-03T03:00:19;1.4;;;3.2;;
74483;SDS011;62942;52.462;10.846;2022-09-03T03:01:29;1.3;;;2.4;;
74483;SDS011;62942;52.462;10.846;2022-09-03T03:02:29;1.3;;;3.7;;
74483;SDS011;62942;52.462;10.846;2022-09-03T03:03:39;1.3;;;3;;
74483;SDS011;62942;52.462;10.846;2022-09-03T03:04:39;1.2;;;3.4;;
74483;SDS011;62942;52.462;10.846;2022-09-03T03:05:49;1.3;;;3.6;;
74483;SDS011;62942;52.462;10.846;2022-09-03T03:06:59;1.3;;;3.5;;
74483;SDS011;62942;52.462;10.846;2022-09-03T03:07:59;1.3;;;2.4;;
74483;SDS011;62942;52.462;10.846;2022-09-03T03:09:09;1.3;;;3.6;;
74483;SDS011;62942;52.462;10.846;2022-09-03T03:10:09;1.2;;;2.1;;
74483;SDS011;62942;52.462;10.846;2022-09-03T03:11:19;1.2;;;2.6;;
74483;SDS011;62942;52.462;10.846;2022-09-03T03:12:19;1.3;;;3.2;;
74483;SDS011;62942;52.462;10.846;2022-09-03T03:13:29;1.3;;;3.2;;
74483;SDS011;62942;52.462;10.846;2022-09-03T03:14:29;1.3;;;2.4;;
74483;SDS011;62942;52.462;10.846;2022-09-03T03:15:39;1.2;;;3;;
74483;SDS011;62942;52.462;10.846;2022-09-03T03:16:49;1.2;;;2;;
74483;SDS011;62942;52.462;10.846;2022-09-03T03:17:59;1.4;;;3.4;;
74483;SDS011;62942;52.462;10.846;2022-09-03T03:18:59;1.2;;;2.1;;
74483;SDS011;62942;52.462;10.846;2022-09-03T03:20:09;1.2;;;2.7;;
74483;SDS011;62942;52.462;10.846;2022-09-03T03:21:10;1.3;;;3.3;;
74483;SDS011;62942;52.462;10.846;2022-09-03T03:22:19;1.2;;;2.6;;
74483;SDS011;62942;52.462;10.846;2022-09-03T03:23:19;1.3;;;2.9;;
74483;SDS011;62942;52.462;10.846;2022-09-03T03:24:19;1.4;;;3.2;;
74483;SDS011;62942;52.462;10.846;2022-09-03T03:25:30;1.2;;;2.9;;
74483;SDS011;62942;52.462;10.846;2022-09-03T03:26:39;1.3;;;2.7;;
74483;SDS011;62942;52.462;10.846;2022-09-03T03:27:49;1.2;;;2.3;;
74483;SDS011;62942;52.462;10.846;2022-09-03T03:28:49;1.3;;;3.3;;
74483;SDS011;62942;52.462;10.846;2022-09-03T03:29:59;1.3;;;2.6;;
74483;SDS011;62942;52.462;10.846;2022-09-03T03:31:03;1.4;;;2.9;;
74483;SDS011;62942;52.462;10.846;2022-09-03T03:32:09;1.3;;;2.6;;
74483;SDS011;62942;52.462;10.846;2022-09-03T03:33:19;1.3;;;2.8;;
74483;SDS011;62942;52.462;10.846;2022-09-03T03:34:19;1.4;;;3.4;;
74483;SDS011;62942;52.462;10.846;2022-09-03T03:35:29;1.3;;;2.4;;
74483;SDS011;62942;52.462;10.846;2022-09-03T03:36:39;1.2;;;2.7;;
74483;SDS011;62942;52.462;10.846;2022-09-03T03:37:49;1.2;;;3.1;;
74483;SDS011;62942;52.462;10.846;2022-09-03T03:38:51;1.3;;;2.7;;
74483;SDS011;62942;52.462;10.846;2022-09-03T03:39:59;1.4;;;3.4;;
74483;SDS011;62942;52.462;10.846;2022-09-03T03:40:59;1.4;;;2.9;;
74483;SDS011;62942;52.462;10.846;2022-09-03T03:42:09;1.3;;;2.6;;
74483;SDS011;62942;52.462;10.846;2022-09-03T03:43:19;1.3;;;2.2;;
74483;SDS011;62942;52.462;10.846;2022-09-03T03:44:29;1.3;;;2.7;;
74483;SDS011;62942;52.462;10.846;2022-09-03T03:45:29;1.2;;;2.5;;
74483;SDS011;62942;52.462;10.846;2022-09-03T03:46:39;1.3;;;3;;
74483;SDS011;62942;52.462;10.846;2022-09-03T03:47:39;1.3;;;2.5;;
74483;SDS011;62942;52.462;10.846;2022-09-03T03:48:39;1.4;;;2.6;;
74483;SDS011;62942;52.462;10.846;2022-09-03T03:49:49;1.4;;;2.8;;
74483;SDS011;62942;52.462;10.846;2022-09-03T03:50:59;1.4;;;4.7;;
74483;SDS011;62942;52.462;10.846;2022-09-03T03:51:59;1.4;;;4.8;;
74483;SDS011;62942;52.462;10.846;2022-09-03T03:53:09;1.3;;;3;;
74483;SDS011;62942;52.462;10.846;2022-09-03T03:54:19;1.3;;;2.4;;
74483;SDS011;62942;52.462;10.846;2022-09-03T03:55:29;1.2;;;2.5;;
74483;SDS011;62942;52.462;10.846;2022-09-03T03:56:39;1.3;;;2.7;;
74483;SDS011;62942;52.462;10.846;2022-09-03T03:57:49;1.3;;;2.8;;
74483;SDS011;62942;52.462;10.846;2022-09-03T03:58:59;1.3;;;2.7;;
74483;SDS011;62942;52.462;10.846;2022-09-03T03:59:59;1.3;;;2.4;;
74483;SDS011;62942;52.462;10.846;2022-09-03T04:01:09;1.4;;;2.4;;
74483;SDS011;62942;52.462;10.846;2022-09-03T04:02:09;1.3;;;3.4;;
74483;SDS011;62942;52.462;10.846;2022-09-03T04:03:19;1.2;;;2.7;;
74483;SDS011;62942;52.462;10.846;2022-09-03T04:04:29;1.3;;;2.8;;
74483;SDS011;62942;52.462;10.846;2022-09-03T04:05:39;1.3;;;3.2;;
74483;SDS011;62942;52.462;10.846;2022-09-03T04:06:49;1.3;;;3;;
74483;SDS011;62942;52.462;10.846;2022-09-03T04:07:59;1.3;;;2.6;;
74483;SDS011;62942;52.462;10.846;2022-09-03T04:08:59;1.2;;;3;;
74483;SDS011;62942;52.462;10.846;2022-09-03T04:10:09;1.4;;;4.4;;
74483;SDS011;62942;52.462;10.846;2022-09-03T04:11:19;1.4;;;2.8;;
74483;SDS011;62942;52.462;10.846;2022-09-03T04:12:29;1.3;;;3.2;;
74483;SDS011;62942;52.462;10.846;2022-09-03T04:13:39;1.3;;;2.4;;
74483;SDS011;62942;52.462;10.846;2022-09-03T04:14:39;1.4;;;2.4;;
74483;SDS011;62942;52.462;10.846;2022-09-03T04:15:49;1.4;;;2.2;;
74483;SDS011;62942;52.462;10.846;2022-09-03T04:16:59;1.5;;;3.9;;
74483;SDS011;62942;52.462;10.846;2022-09-03T04:18:09;1.4;;;2.4;;
74483;SDS011;62942;52.462;10.846;2022-09-03T04:19:09;1.3;;;3.3;;
74483;SDS011;62942;52.462;10.846;2022-09-03T04:20:09;1.3;;;3.5;;
74483;SDS011;62942;52.462;10.846;2022-09-03T04:21:19;1.5;;;4;;
74483;SDS011;62942;52.462;10.846;2022-09-03T04:22:19;1.4;;;3.9;;
74483;SDS011;62942;52.462;10.846;2022-09-03T04:23:29;1.4;;;2.6;;
74483;SDS011;62942;52.462;10.846;2022-09-03T04:24:39;1.4;;;3;;
74483;SDS011;62942;52.462;10.846;2022-09-03T04:25:50;1.4;;;2.8;;
74483;SDS011;62942;52.462;10.846;2022-09-03T04:26:59;1.4;;;3.8;;
74483;SDS011;62942;52.462;10.846;2022-09-03T04:28:09;1.4;;;3.3;;
74483;SDS011;62942;52.462;10.846;2022-09-03T04:29:19;1.4;;;2.3;;
74483;SDS011;62942;52.462;10.846;2022-09-03T04:30:29;1.4;;;3.7;;
74483;SDS011;62942;52.462;10.846;2022-09-03T04:31:39;1.4;;;2.6;;
74483;SDS011;62942;52.462;10.846;2022-09-03T04:32:49;1.5;;;2.6;;
74483;SDS011;62942;52.462;10.846;2022-09-03T04:33:59;1.4;;;3.1;;
74483;SDS011;62942;52.462;10.846;2022-09-03T04:35:09;1.4;;;3.8;;
74483;SDS011;62942;52.462;10.846;2022-09-03T04:36:19;1.3;;;2.2;;
74483;SDS011;62942;52.462;10.846;2022-09-03T04:37:29;1.5;;;2.7;;
74483;SDS011;62942;52.462;10.846;2022-09-03T04:38:39;1.3;;;2.2;;
74483;SDS011;62942;52.462;10.846;2022-09-03T04:39:39;1.4;;;2.6;;
74483;SDS011;62942;52.462;10.846;2022-09-03T04:40:50;1.4;;;3.3;;
74483;SDS011;62942;52.462;10.846;2022-09-03T04:41:59;1.5;;;2.5;;
74483;SDS011;62942;52.462;10.846;2022-09-03T04:43:09;1.4;;;3.7;;
74483;SDS011;62942;52.462;10.846;2022-09-03T04:44:19;1.3;;;2.8;;
74483;SDS011;62942;52.462;10.846;2022-09-03T04:45:19;1.4;;;3.5;;
74483;SDS011;62942;52.462;10.846;2022-09-03T04:46:29;1.4;;;3.2;;
74483;SDS011;62942;52.462;10.846;2022-09-03T04:47:39;1.4;;;4.6;;
74483;SDS011;62942;52.462;10.846;2022-09-03T04:48:49;1.4;;;2.7;;
74483;SDS011;62942;52.462;10.846;2022-09-03T04:49:59;1.4;;;3.5;;
74483;SDS011;62942;52.462;10.846;2022-09-03T04:51:09;1.5;;;3.3;;
74483;SDS011;62942;52.462;10.846;2022-09-03T04:52:09;1.4;;;3.3;;
74483;SDS011;62942;52.462;10.846;2022-09-03T04:53:19;1.6;;;3.3;;
74483;SDS011;62942;52.462;10.846;2022-09-03T04:54:29;1.3;;;2.3;;
74483;SDS011;62942;52.462;10.846;2022-09-03T04:55:39;1.4;;;3;;
74483;SDS011;62942;52.462;10.846;2022-09-03T04:56:49;1.5;;;2.7;;
74483;SDS011;62942;52.462;10.846;2022-09-03T04:57:49;1.5;;;3.3;;
74483;SDS011;62942;52.462;10.846;2022-09-03T04:58:59;1.4;;;3.3;;
74483;SDS011;62942;52.462;10.846;2022-09-03T05:00:09;1.4;;;3.1;;
74483;SDS011;62942;52.462;10.846;2022-09-03T05:01:22;1.4;;;2.7;;
74483;SDS011;62942;52.462;10.846;2022-09-03T05:02:19;1.4;;;2.8;;
74483;SDS011;62942;52.462;10.846;2022-09-03T05:03:29;1.6;;;3.8;;
74483;SDS011;62942;52.462;10.846;2022-09-03T05:04:39;1.5;;;3.4;;
74483;SDS011;62942;52.462;10.846;2022-09-03T05:05:50;1.5;;;3;;
74483;SDS011;62942;52.462;10.846;2022-09-03T05:06:49;1.4;;;3.4;;
74483;SDS011;62942;52.462;10.846;2022-09-03T05:07:59;1.6;;;3;;
74483;SDS011;62942;52.462;10.846;2022-09-03T05:09:09;1.5;;;2.8;;
74483;SDS011;62942;52.462;10.846;2022-09-03T05:10:19;1.5;;;3.2;;
74483;SDS011;62942;52.462;10.846;2022-09-03T05:11:19;1.5;;;3.3;;
74483;SDS011;62942;52.462;10.846;2022-09-03T05:12:29;1.6;;;2.7;;
74483;SDS011;62942;52.462;10.846;2022-09-03T05:13:39;1.5;;;2.9;;
74483;SDS011;62942;52.462;10.846;2022-09-03T05:14:39;1.6;;;3.5;;
74483;SDS011;62942;52.462;10.846;2022-09-03T05:15:49;1.4;;;2.5;;
74483;SDS011;62942;52.462;10.846;2022-09-03T05:16:49;1.4;;;2.7;;
74483;SDS011;62942;52.462;10.846;2022-09-03T05:17:49;1.4;;;3.1;;
74483;SDS011;62942;52.462;10.846;2022-09-03T05:18:59;1.4;;;3.8;;
74483;SDS011;62942;52.462;10.846;2022-09-03T05:19:59;1.4;;;3;;
74483;SDS011;62942;52.462;10.846;2022-09-03T05:21:10;1.6;;;3.3;;
74483;SDS011;62942;52.462;10.846;2022-09-03T05:22:19;1.6;;;3.5;;
74483;SDS011;62942;52.462;10.846;2022-09-03T05:23:29;1.4;;;3;;
74483;SDS011;62942;52.462;10.846;2022-09-03T05:24:29;1.5;;;3;;
74483;SDS011;62942;52.462;10.846;2022-09-03T05:25:39;1.5;;;3.7;;
74483;SDS011;62942;52.462;10.846;2022-09-03T05:26:39;1.6;;;3.2;;
74483;SDS011;62942;52.462;10.846;2022-09-03T05:27:49;1.6;;;2.9;;
74483;SDS011;62942;52.462;10.846;2022-09-03T05:28:59;1.6;;;3.2;;
74483;SDS011;62942;52.462;10.846;2022-09-03T05:30:09;1.6;;;3;;
74483;SDS011;62942;52.462;10.846;2022-09-03T05:31:09;1.6;;;4;;
74483;SDS011;62942;52.462;10.846;2022-09-03T05:32:19;1.5;;;3.5;;
74483;SDS011;62942;52.462;10.846;2022-09-03T05:33:29;1.4;;;2.7;;
74483;SDS011;62942;52.462;10.846;2022-09-03T05:34:39;1.4;;;2.8;;
74483;SDS011;62942;52.462;10.846;2022-09-03T05:35:48;1.6;;;3.8;;
74483;SDS011;62942;52.462;10.846;2022-09-03T05:36:49;1.6;;;4.2;;
74483;SDS011;62942;52.462;10.846;2022-09-03T05:37:59;1.6;;;3.8;;
74483;SDS011;62942;52.462;10.846;2022-09-03T05:39:09;1.5;;;3;;
74483;SDS011;62942;52.462;10.846;2022-09-03T05:40:19;1.5;;;2.5;;
74483;SDS011;62942;52.462;10.846;2022-09-03T05:41:29;1.5;;;3.4;;
74483;SDS011;62942;52.462;10.846;2022-09-03T05:42:29;1.6;;;6;;
74483;SDS011;62942;52.462;10.846;2022-09-03T05:43:39;1.5;;;3.6;;
74483;SDS011;62942;52.462;10.846;2022-09-03T05:44:48;1.4;;;3.4;;
74483;SDS011;62942;52.462;10.846;2022-09-03T05:45:48;1.5;;;4.1;;
74483;SDS011;62942;52.462;10.846;2022-09-03T05:46:59;1.5;;;3.7;;
74483;SDS011;62942;52.462;10.846;2022-09-03T05:48:08;1.5;;;4.1;;
74483;SDS011;62942;52.462;10.846;2022-09-03T05:49:09;1.5;;;3.5;;
74483;SDS011;62942;52.462;10.846;2022-09-03T05:50:18;1.5;;;2.7;;
74483;SDS011;62942;52.462;10.846;2022-09-03T05:51:29;1.4;;;3.2;;
74483;SDS011;62942;52.462;10.846;2022-09-03T05:52:29;1.5;;;3.3;;
74483;SDS011;62942;52.462;10.846;2022-09-03T05:53:39;1.4;;;3.4;;
74483;SDS011;62942;52.462;10.846;2022-09-03T05:54:49;1.5;;;2.9;;
74483;SDS011;62942;52.462;10.846;2022-09-03T05:55:53;1.4;;;4.4;;
74483;SDS011;62942;52.462;10.846;2022-09-03T05:56:58;1.5;;;3.5;;
74483;SDS011;62942;52.462;10.846;2022-09-03T05:58:08;1.3;;;3.1;;
74483;SDS011;62942;52.462;10.846;2022-09-03T05:59:18;1.3;;;2.9;;
74483;SDS011;62942;52.462;10.846;2022-09-03T06:00:28;1.5;;;2.7;;
74483;SDS011;62942;52.462;10.846;2022-09-03T06:01:29;1.5;;;3.3;;
74483;SDS011;62942;52.462;10.846;2022-09-03T06:02:39;1.5;;;3.1;;
74483;SDS011;62942;52.462;10.846;2022-09-03T06:03:52;1.5;;;3.7;;
74483;SDS011;62942;52.462;10.846;2022-09-03T06:04:58;1.6;;;3.6;;
74483;SDS011;62942;52.462;10.846;2022-09-03T06:06:09;1.4;;;4.2;;
74483;SDS011;62942;52.462;10.846;2022-09-03T06:07:08;1.4;;;2.8;;
74483;SDS011;62942;52.462;10.846;2022-09-03T06:08:19;1.4;;;3.3;;
74483;SDS011;62942;52.462;10.846;2022-09-03T06:09:28;1.5;;;3;;
74483;SDS011;62942;52.462;10.846;2022-09-03T06:10:28;1.5;;;3.3;;
74483;SDS011;62942;52.462;10.846;2022-09-03T06:11:39;1.5;;;2.7;;
74483;SDS011;62942;52.462;10.846;2022-09-03T06:12:50;1.4;;;3;;
74483;SDS011;62942;52.462;10.846;2022-09-03T06:13:59;1.5;;;3.5;;
74483;SDS011;62942;52.462;10.846;2022-09-03T06:15:09;1.5;;;2.9;;
74483;SDS011;62942;52.462;10.846;2022-09-03T06:16:08;1.5;;;3.7;;
74483;SDS011;62942;52.462;10.846;2022-09-03T06:17:18;1.4;;;4.2;;
74483;SDS011;62942;52.462;10.846;2022-09-03T06:18:18;1.5;;;4.5;;
74483;SDS011;62942;52.462;10.846;2022-09-03T06:19:18;1.5;;;3;;
74483;SDS011;62942;52.462;10.846;2022-09-03T06:20:18;1.5;;;4;;
74483;SDS011;62942;52.462;10.846;2022-09-03T06:21:18;1.5;;;5.2;;
74483;SDS011;62942;52.462;10.846;2022-09-03T06:22:28;1.6;;;4.2;;
74483;SDS011;62942;52.462;10.846;2022-09-03T06:23:39;1.6;;;3.5;;
74483;SDS011;62942;52.462;10.846;2022-09-03T06:24:48;1.4;;;3.1;;
74483;SDS011;62942;52.462;10.846;2022-09-03T06:25:58;1.4;;;3.3;;
74483;SDS011;62942;52.462;10.846;2022-09-03T06:26:58;1.7;;;4.6;;
74483;SDS011;62942;52.462;10.846;2022-09-03T06:28:08;1.4;;;3.4;;
74483;SDS011;62942;52.462;10.846;2022-09-03T06:29:09;1.5;;;4.2;;
74483;SDS011;62942;52.462;10.846;2022-09-03T06:30:09;1.3;;;2.8;;
74483;SDS011;62942;52.462;10.846;2022-09-03T06:31:09;1.5;;;2.9;;
74483;SDS011;62942;52.462;10.846;2022-09-03T06:32:08;1.5;;;4.3;;
74483;SDS011;62942;52.462;10.846;2022-09-03T06:33:08;1.4;;;3.4;;
74483;SDS011;62942;52.462;10.846;2022-09-03T06:34:18;1.6;;;3.7;;
74483;SDS011;62942;52.462;10.846;2022-09-03T06:35:28;1.3;;;3.2;;
74483;SDS011;62942;52.462;10.846;2022-09-03T06:36:28;1.7;;;3.9;;
74483;SDS011;62942;52.462;10.846;2022-09-03T06:37:39;1.5;;;4.8;;
74483;SDS011;62942;52.462;10.846;2022-09-03T06:38:50;1.7;;;4.1;;
74483;SDS011;62942;52.462;10.846;2022-09-03T06:39:48;1.5;;;3.9;;
74483;SDS011;62942;52.462;10.846;2022-09-03T06:40:50;1.6;;;3.5;;
74483;SDS011;62942;52.462;10.846;2022-09-03T06:41:58;1.5;;;5.1;;
74483;SDS011;62942;52.462;10.846;2022-09-03T06:42:58;1.4;;;4;;
74483;SDS011;62942;52.462;10.846;2022-09-03T06:44:08;1.5;;;3.7;;
74483;SDS011;62942;52.462;10.846;2022-09-03T06:45:18;1.5;;;2.9;;
74483;SDS011;62942;52.462;10.846;2022-09-03T06:46:29;1.4;;;3;;
74483;SDS011;62942;52.462;10.846;2022-09-03T06:47:38;1.6;;;3.5;;
74483;SDS011;62942;52.462;10.846;2022-09-03T06:48:39;1.6;;;4.2;;
74483;SDS011;62942;52.462;10.846;2022-09-03T06:49:38;1.4;;;3.5;;